createdAt,value
2023-12-21T00:01:51.157Z,3.53
2023-12-21T00:04:19.681Z,3.58
2023-12-21T00:06:47.524Z,3.64
2023-12-21T00:09:15.895Z,3.65
2023-12-21T00:11:44.052Z,3.65
2023-12-21T00:14:11.887Z,3.62
2023-12-21T00:16:39.882Z,3.64
2023-12-21T00:19:08.277Z,3.63
2023-12-21T00:21:36.290Z,3.66
2023-12-21T00:24:04.210Z,3.63
2023-12-21T00:26:32.664Z,3.59
2023-12-21T00:29:00.390Z,3.54
2023-12-21T00:31:28.344Z,3.58
2023-12-21T00:33:56.725Z,3.61
2023-12-21T00:36:24.530Z,3.59
2023-12-21T00:38:52.476Z,3.64
2023-12-21T00:41:20.570Z,3.63
2023-12-21T00:43:48.419Z,3.63
2023-12-21T00:46:16.501Z,3.67
2023-12-21T00:48:44.916Z,3.52
2023-12-21T00:51:12.979Z,3.56
2023-12-21T00:53:41.089Z,3.49
2023-12-21T00:56:10.165Z,3.46
2023-12-21T00:58:38.428Z,3.42
2023-12-21T01:01:06.694Z,3.38
2023-12-21T01:03:35.390Z,3.34
2023-12-21T01:06:03.548Z,3.30
2023-12-21T01:08:31.712Z,3.31
2023-12-21T01:11:01.438Z,3.22
2023-12-21T01:13:29.826Z,3.18
2023-12-21T01:16:00.270Z,3.18
2023-12-21T01:18:32.041Z,3.13
2023-12-21T01:21:00.289Z,3.26
2023-12-21T01:23:28.373Z,3.25
2023-12-21T01:25:56.548Z,3.23
2023-12-21T01:28:24.568Z,3.24
2023-12-21T01:30:52.733Z,3.32
2023-12-21T01:33:20.538Z,3.32
2023-12-21T01:35:49.209Z,3.37
2023-12-21T01:38:17.449Z,3.35
2023-12-21T01:40:45.355Z,3.31
2023-12-21T01:43:13.701Z,3.27
2023-12-21T01:45:41.775Z,3.21
2023-12-21T01:48:11.644Z,3.12
2023-12-21T01:50:42.136Z,3.13
2023-12-21T01:53:13.139Z,3.03
2023-12-21T01:55:41.913Z,2.91
2023-12-21T01:58:09.920Z,2.78
2023-12-21T02:00:38.999Z,2.74
2023-12-21T02:03:07.476Z,2.74
2023-12-21T02:05:35.578Z,2.70
2023-12-21T02:08:03.623Z,2.64
2023-12-21T02:10:32.049Z,2.58
2023-12-21T02:13:00.187Z,2.65
2023-12-21T02:15:28.257Z,2.66
2023-12-21T02:17:56.900Z,2.63
2023-12-21T02:20:24.994Z,2.77
2023-12-21T02:22:53.718Z,2.97
2023-12-21T02:25:21.958Z,3.15
2023-12-21T02:27:51.545Z,3.30
2023-12-21T02:30:20.121Z,3.34
2023-12-21T02:32:49.437Z,3.31
2023-12-21T02:35:17.873Z,3.21
2023-12-21T02:37:46.457Z,3.11
2023-12-21T02:40:15.683Z,3.08
2023-12-21T02:42:44.033Z,3.01
2023-12-21T02:45:12.580Z,3.00
2023-12-21T02:47:41.672Z,3.01
2023-12-21T02:50:10.339Z,2.96
2023-12-21T02:52:38.738Z,2.83
2023-12-21T02:55:10.410Z,2.96
2023-12-21T02:57:38.642Z,3.03
2023-12-21T03:00:09.265Z,3.08
2023-12-21T03:02:37.666Z,3.14
2023-12-21T03:05:06.355Z,3.15
2023-12-21T03:07:35.541Z,3.14
2023-12-21T03:10:06.688Z,3.15
2023-12-21T03:12:34.813Z,3.11
2023-12-21T03:15:03.508Z,3.11
2023-12-21T03:17:31.645Z,3.10
2023-12-21T03:19:59.528Z,3.07
2023-12-21T03:22:27.735Z,3.11
2023-12-21T03:24:55.926Z,3.10
2023-12-21T03:27:23.737Z,3.13
2023-12-21T03:29:52.631Z,3.18
2023-12-21T03:32:21.194Z,3.18
2023-12-21T03:34:50.653Z,3.15
2023-12-21T03:37:18.411Z,3.20
2023-12-21T03:39:47.546Z,3.15
2023-12-21T03:42:15.346Z,3.12
2023-12-21T03:44:43.133Z,3.10
2023-12-21T03:47:11.208Z,3.04
2023-12-21T03:49:39.049Z,3.01
2023-12-21T03:52:07.226Z,3.01
2023-12-21T03:54:35.414Z,3.00
2023-12-21T03:57:03.150Z,2.95
2023-12-21T03:59:30.914Z,2.79
2023-12-21T04:01:59.179Z,2.82
2023-12-21T04:04:28.985Z,2.80
2023-12-21T04:06:57.060Z,2.86
2023-12-21T04:09:26.466Z,2.91
2023-12-21T04:11:55.063Z,2.99
2023-12-21T04:14:22.537Z,2.81
2023-12-21T04:16:52.204Z,2.73
2023-12-21T04:19:20.262Z,2.68
2023-12-21T04:21:47.770Z,2.56
2023-12-21T04:24:15.898Z,2.46
2023-12-21T04:26:44.026Z,2.47
2023-12-21T04:29:11.354Z,2.35
2023-12-21T04:31:43.858Z,2.42
2023-12-21T04:34:11.745Z,2.36
2023-12-21T04:36:39.243Z,2.43
2023-12-21T04:39:06.512Z,2.35
2023-12-21T04:41:34.145Z,2.23
2023-12-21T04:44:01.658Z,2.28
2023-12-21T04:46:29.080Z,2.04
2023-12-21T04:48:56.722Z,1.83
2023-12-21T04:51:24.149Z,1.72
2023-12-21T04:53:52.914Z,1.76
2023-12-21T04:56:20.702Z,1.75
2023-12-21T04:58:48.081Z,1.86
2023-12-21T05:01:15.879Z,1.75
2023-12-21T05:03:44.179Z,1.59
2023-12-21T05:06:11.736Z,1.66
2023-12-21T05:08:39.178Z,1.71
2023-12-21T05:11:06.918Z,1.64
2023-12-21T05:13:34.368Z,1.49
2023-12-21T05:16:01.814Z,1.30
2023-12-21T05:18:29.817Z,1.26
2023-12-21T05:21:00.431Z,1.26
2023-12-21T05:23:28.146Z,1.22
2023-12-21T05:25:56.658Z,1.25
2023-12-21T05:28:24.426Z,1.04
2023-12-21T05:30:52.764Z,1.13
2023-12-21T05:33:20.845Z,1.08
2023-12-21T05:35:48.702Z,1.07
2023-12-21T05:38:16.371Z,1.05
2023-12-21T05:40:44.459Z,0.93
2023-12-21T05:43:12.281Z,0.95
2023-12-21T05:45:40.200Z,0.97
2023-12-21T05:48:08.495Z,0.95
2023-12-21T05:50:36.400Z,0.91
2023-12-21T05:53:04.903Z,0.78
2023-12-21T05:55:32.783Z,0.75
2023-12-21T05:58:00.528Z,0.78
2023-12-21T06:00:27.916Z,0.64
2023-12-21T06:02:55.411Z,0.79
2023-12-21T06:05:22.956Z,0.87
2023-12-21T06:07:51.446Z,0.89
2023-12-21T06:10:19.224Z,0.84
2023-12-21T06:12:47.388Z,0.78
2023-12-21T06:15:16.357Z,0.73
2023-12-21T06:17:44.412Z,0.58
2023-12-21T06:20:12.648Z,0.51
2023-12-21T06:22:40.292Z,0.56
2023-12-21T06:25:08.706Z,0.68
2023-12-21T06:27:36.053Z,0.73
2023-12-21T06:30:03.493Z,0.73
2023-12-21T06:32:31.527Z,0.77
2023-12-21T06:34:58.918Z,0.78
2023-12-21T06:37:26.236Z,0.88
2023-12-21T06:39:55.724Z,0.96
2023-12-21T06:42:23.886Z,1.00
2023-12-21T06:44:51.436Z,1.09
2023-12-21T06:47:19.128Z,1.11
2023-12-21T06:49:46.597Z,1.11
2023-12-21T06:52:14.010Z,1.18
2023-12-21T06:54:41.607Z,1.16
2023-12-21T06:57:09.050Z,1.21
2023-12-21T06:59:36.594Z,1.29
2023-12-21T07:02:04.599Z,1.30
2023-12-21T07:04:32.452Z,1.28
2023-12-21T07:07:00.459Z,1.22
2023-12-21T07:09:28.742Z,1.24
2023-12-21T07:11:57.280Z,1.21
2023-12-21T07:14:24.918Z,1.10
2023-12-21T07:16:53.081Z,1.07
2023-12-21T07:19:20.765Z,0.97
2023-12-21T07:21:48.418Z,0.98
2023-12-21T07:24:16.694Z,0.75
2023-12-21T07:26:44.414Z,0.75
2023-12-21T07:29:12.359Z,0.65
2023-12-21T07:31:42.070Z,0.80
2023-12-21T07:34:10.665Z,0.86
2023-12-21T07:36:39.804Z,0.96
2023-12-21T07:39:08.223Z,1.22
2023-12-21T07:41:36.259Z,1.50
2023-12-21T07:44:07.981Z,1.67
2023-12-21T07:46:36.666Z,1.84
2023-12-21T07:49:05.146Z,2.00
2023-12-21T07:51:33.660Z,2.28
2023-12-21T07:54:05.339Z,2.64
2023-12-21T07:56:34.337Z,3.03
2023-12-21T07:59:05.840Z,3.44
2023-12-21T08:01:33.220Z,3.66
2023-12-21T08:04:01.171Z,3.71
2023-12-21T08:06:29.033Z,4.09
2023-12-21T08:08:58.300Z,4.44
2023-12-21T08:11:29.419Z,4.54
2023-12-21T08:13:58.385Z,4.84
2023-12-21T08:16:26.030Z,4.63
2023-12-21T08:18:53.466Z,4.71
2023-12-21T08:21:20.662Z,4.56
2023-12-21T08:23:48.762Z,4.46
2023-12-21T08:26:16.868Z,4.48
2023-12-21T08:28:44.359Z,4.55
2023-12-21T08:31:12.404Z,4.58
2023-12-21T08:33:43.048Z,4.68
2023-12-21T08:36:16.529Z,4.59
2023-12-21T08:38:43.894Z,4.72
2023-12-21T08:41:11.240Z,4.75
2023-12-21T08:43:38.916Z,4.81
2023-12-21T08:46:06.242Z,4.84
2023-12-21T08:48:33.662Z,4.78
2023-12-21T08:51:01.181Z,4.75
2023-12-21T08:53:28.435Z,4.74
2023-12-21T08:55:55.723Z,4.74
2023-12-21T08:58:23.322Z,4.64
2023-12-21T09:00:50.846Z,4.75
2023-12-21T09:03:20.950Z,4.75
2023-12-21T09:09:19.138Z,4.99
2023-12-21T09:11:47.272Z,5.01
2023-12-21T09:14:14.988Z,5.00
2023-12-21T09:16:42.746Z,5.19
2023-12-21T09:19:11.659Z,4.97
2023-12-21T09:21:40.882Z,5.05
2023-12-21T09:24:09.736Z,5.05
2023-12-21T09:26:37.722Z,5.02
2023-12-21T09:29:05.562Z,5.04
2023-12-21T09:31:33.726Z,5.18
2023-12-21T09:34:05.758Z,4.97
2023-12-21T09:36:34.915Z,5.20
2023-12-21T09:39:31.346Z,5.11
2023-12-21T09:42:10.281Z,5.45
2023-12-21T09:44:38.630Z,5.74
2023-12-21T09:47:06.846Z,5.64
2023-12-21T09:49:38.990Z,5.68
2023-12-21T09:52:11.447Z,5.81
2023-12-21T09:54:42.668Z,5.69
2023-12-21T09:57:10.877Z,5.43
2023-12-21T09:59:39.011Z,5.66
2023-12-21T10:02:13.459Z,5.54
2023-12-21T10:08:12.564Z,5.77
2023-12-21T10:10:40.360Z,6.03
2023-12-21T10:13:07.701Z,5.94
2023-12-21T10:15:35.109Z,5.94
2023-12-21T10:18:07.245Z,5.93
2023-12-21T10:20:34.884Z,5.79
2023-12-21T10:23:02.097Z,6.06
2023-12-21T10:25:29.541Z,5.88
2023-12-21T10:27:57.590Z,6.04
2023-12-21T10:30:25.777Z,5.88
2023-12-21T10:32:56.664Z,5.97
2023-12-21T10:35:27.993Z,6.03
2023-12-21T10:37:56.045Z,6.28
2023-12-21T10:40:23.987Z,6.38
2023-12-21T10:42:53.287Z,6.64
2023-12-21T10:45:30.198Z,6.93
2023-12-21T10:48:09.502Z,6.86
2023-12-21T10:50:38.153Z,6.72
2023-12-21T10:53:05.858Z,6.87
2023-12-21T10:55:33.707Z,6.68
2023-12-21T10:58:04.125Z,6.75
2023-12-21T11:00:32.324Z,6.81
2023-12-21T11:03:18.027Z,6.78
2023-12-21T11:05:46.406Z,6.54
2023-12-21T11:08:14.384Z,6.80
2023-12-21T11:10:42.212Z,6.78
2023-12-21T11:13:11.144Z,6.56
2023-12-21T11:15:38.559Z,6.64
2023-12-21T11:18:09.741Z,6.66
2023-12-21T11:20:56.180Z,6.55
2023-12-21T11:23:24.611Z,6.86
2023-12-21T11:25:58.053Z,6.90
2023-12-21T11:28:30.482Z,7.26
2023-12-21T11:30:58.102Z,7.25
2023-12-21T11:33:30.407Z,7.28
2023-12-21T11:36:03.951Z,7.16
2023-12-21T11:38:52.666Z,7.54
2023-12-21T11:41:25.375Z,7.61
2023-12-21T11:43:58.305Z,7.61
2023-12-21T11:50:10.710Z,7.33
2023-12-21T11:56:16.727Z,7.47
2023-12-21T11:58:52.025Z,7.26
2023-12-21T12:01:27.888Z,7.26
2023-12-21T12:03:57.749Z,7.12
2023-12-21T12:06:29.827Z,7.31
2023-12-21T12:08:57.676Z,7.34
2023-12-21T12:11:26.624Z,7.23
2023-12-21T12:13:54.626Z,7.35
2023-12-21T12:16:22.549Z,7.31
2023-12-21T12:18:50.712Z,7.52
2023-12-21T12:21:18.255Z,7.30
2023-12-21T12:23:49.124Z,7.33
2023-12-21T12:26:17.463Z,7.70
2023-12-21T12:28:48.695Z,7.27
2023-12-21T12:31:16.379Z,7.18
2023-12-21T12:33:43.640Z,7.06
2023-12-21T12:36:11.081Z,7.30
2023-12-21T12:38:38.506Z,7.36
2023-12-21T12:41:08.281Z,7.22
2023-12-21T12:43:36.384Z,7.12
2023-12-21T12:46:06.256Z,7.03
2023-12-21T12:48:33.796Z,7.18
2023-12-21T12:51:01.505Z,7.03
2023-12-21T12:53:30.984Z,6.94
2023-12-21T12:55:59.373Z,6.84
2023-12-21T12:58:48.332Z,6.66
2023-12-21T13:01:26.838Z,6.69
2023-12-21T13:03:55.825Z,6.83
2023-12-21T13:06:25.238Z,7.04
2023-12-21T13:08:52.571Z,6.77
2023-12-21T13:11:19.923Z,6.60
2023-12-21T13:13:48.207Z,6.69
2023-12-21T13:16:19.720Z,6.64
2023-12-21T13:18:48.429Z,6.60
2023-12-21T13:21:15.799Z,6.63
2023-12-21T13:23:43.614Z,6.51
2023-12-21T13:26:14.112Z,6.49
2023-12-21T13:28:45.052Z,6.56
2023-12-21T13:31:13.454Z,6.51
2023-12-21T13:33:41.129Z,6.45
2023-12-21T13:36:11.306Z,6.38
2023-12-21T13:38:42.020Z,6.33
2023-12-21T13:41:10.626Z,6.31
2023-12-21T13:43:38.464Z,6.39
2023-12-21T13:46:08.476Z,6.07
2023-12-21T13:48:36.736Z,6.07
2023-12-21T13:51:04.938Z,6.16
2023-12-21T13:53:35.642Z,6.12
2023-12-21T13:56:04.250Z,6.04
2023-12-21T14:02:05.990Z,6.10
2023-12-21T14:07:47.846Z,6.03
2023-12-21T14:10:16.568Z,6.00
2023-12-21T14:12:44.617Z,5.87
2023-12-21T14:15:12.637Z,5.91
2023-12-21T14:17:42.083Z,6.05
2023-12-21T14:20:12.699Z,6.08
2023-12-21T14:22:41.105Z,5.97
2023-12-21T14:25:09.653Z,6.07
2023-12-21T14:27:37.416Z,6.10
2023-12-21T14:30:06.418Z,6.01
2023-12-21T14:32:37.316Z,5.98
2023-12-21T14:35:05.905Z,6.10
2023-12-21T14:37:33.758Z,6.19
2023-12-21T14:40:01.531Z,6.23
2023-12-21T14:42:34.267Z,6.11
2023-12-21T14:45:03.382Z,6.06
2023-12-21T14:47:32.857Z,6.08
2023-12-21T14:50:00.577Z,5.94
2023-12-21T14:52:28.494Z,5.88
2023-12-21T14:54:56.557Z,5.97
2023-12-21T14:57:25.089Z,6.06
2023-12-21T14:59:54.113Z,5.98
2023-12-21T15:02:22.050Z,6.10
2023-12-21T15:04:50.592Z,6.17
2023-12-21T15:07:19.881Z,5.99
2023-12-21T15:09:47.923Z,6.11
2023-12-21T15:12:19.024Z,6.00
2023-12-21T15:14:47.801Z,5.89
2023-12-21T15:17:15.702Z,5.82
2023-12-21T15:19:43.332Z,5.95
2023-12-21T15:22:11.182Z,5.96
2023-12-21T15:24:39.199Z,5.88
2023-12-21T15:27:07.024Z,5.91
2023-12-21T15:29:34.730Z,5.81
2023-12-21T15:32:03.042Z,5.73
2023-12-21T15:34:32.585Z,5.71
2023-12-21T15:37:00.706Z,5.69
2023-12-21T15:39:28.879Z,5.75
2023-12-21T15:41:57.993Z,5.57
2023-12-21T15:44:26.029Z,5.56
2023-12-21T15:46:54.075Z,5.50
2023-12-21T15:49:23.676Z,5.52
2023-12-21T15:51:51.396Z,5.59
2023-12-21T15:54:19.319Z,5.58
2023-12-21T15:56:47.376Z,5.58
2023-12-21T15:59:15.101Z,5.58
2023-12-21T16:01:43.828Z,5.53
2023-12-21T16:04:12.484Z,5.47
2023-12-21T16:06:40.376Z,5.33
2023-12-21T16:09:08.195Z,5.36
2023-12-21T16:11:36.135Z,5.36
2023-12-21T16:14:03.908Z,5.41
2023-12-21T16:16:31.761Z,5.28
2023-12-21T16:18:59.837Z,5.33
2023-12-21T16:21:28.621Z,5.35
2023-12-21T16:23:56.874Z,5.36
2023-12-21T16:26:24.787Z,5.35
2023-12-21T16:28:52.560Z,5.41
2023-12-21T16:31:20.406Z,5.37
2023-12-21T16:33:48.510Z,5.41
2023-12-21T16:36:16.019Z,5.36
2023-12-21T16:38:43.204Z,5.31
2023-12-21T16:41:11.192Z,5.39
2023-12-21T16:43:43.188Z,5.39
2023-12-21T16:46:10.872Z,5.36
2023-12-21T16:48:39.555Z,5.34
2023-12-21T16:51:12.786Z,5.13
2023-12-21T16:53:40.406Z,5.08
2023-12-21T16:56:07.635Z,5.08
2023-12-21T16:58:35.003Z,4.96
2023-12-21T17:01:03.137Z,4.92
2023-12-21T17:03:32.728Z,4.93
2023-12-21T17:06:00.045Z,5.02
2023-12-21T17:08:27.595Z,5.04
2023-12-21T17:10:55.163Z,4.98
2023-12-21T17:13:25.456Z,4.87
2023-12-21T17:15:54.657Z,4.94
2023-12-21T17:18:22.430Z,4.81
2023-12-21T17:20:49.960Z,4.89
2023-12-21T17:23:17.534Z,4.85
2023-12-21T17:25:45.020Z,4.81
2023-12-21T17:28:12.705Z,4.91
2023-12-21T17:30:40.313Z,4.93
2023-12-21T17:33:07.661Z,4.95
2023-12-21T17:35:37.807Z,4.88
2023-12-21T17:38:05.319Z,4.94
2023-12-21T17:40:32.478Z,4.84
2023-12-21T17:43:00.329Z,4.87
2023-12-21T17:45:27.851Z,4.81
2023-12-21T17:47:55.002Z,4.89
2023-12-21T17:53:53.709Z,5.07
2023-12-21T17:56:21.728Z,5.00
2023-12-21T17:58:49.865Z,5.11
2023-12-21T18:01:17.639Z,5.05
2023-12-21T18:03:45.171Z,5.06
2023-12-21T18:06:12.417Z,5.17
2023-12-21T18:08:40.877Z,5.15
2023-12-21T18:11:12.437Z,5.17
2023-12-21T18:13:42.812Z,5.19
2023-12-21T18:16:11.280Z,5.15
2023-12-21T18:18:39.611Z,5.08
2023-12-21T18:21:08.920Z,5.11
2023-12-21T18:23:37.849Z,4.91
2023-12-21T18:26:06.132Z,4.99
2023-12-21T18:28:35.016Z,5.08
2023-12-21T18:31:03.898Z,5.06
2023-12-21T18:33:32.923Z,5.07
2023-12-21T18:39:32.797Z,5.14
2023-12-21T18:42:01.542Z,5.11
2023-12-21T18:44:30.235Z,5.08
2023-12-21T18:46:59.286Z,5.03
2023-12-21T18:49:29.079Z,5.07
2023-12-21T18:51:58.086Z,5.06
2023-12-21T18:54:28.017Z,5.05
2023-12-21T18:56:58.199Z,5.08
2023-12-21T18:59:27.238Z,5.05
2023-12-21T19:01:56.177Z,4.95
2023-12-21T19:04:25.287Z,4.85
2023-12-21T19:06:56.194Z,4.91
2023-12-21T19:09:24.898Z,4.92
2023-12-21T19:11:53.227Z,4.96
2023-12-21T19:14:21.664Z,4.96
2023-12-21T19:16:50.952Z,4.98
2023-12-21T19:19:19.707Z,4.99
2023-12-21T19:21:48.343Z,5.03
2023-12-21T19:24:17.317Z,5.04
2023-12-21T19:26:46.214Z,4.97
2023-12-21T19:32:45.173Z,5.00
2023-12-21T19:35:15.577Z,5.00
2023-12-21T19:37:45.909Z,4.94
2023-12-21T19:40:15.333Z,4.95
2023-12-21T19:42:44.058Z,4.96
2023-12-21T19:45:12.746Z,4.93
2023-12-21T19:47:41.397Z,4.95
2023-12-21T19:50:10.445Z,4.96
2023-12-21T19:52:39.352Z,4.94
2023-12-21T19:55:08.142Z,4.95
2023-12-21T19:57:36.129Z,4.92
2023-12-21T20:00:07.680Z,4.84
2023-12-21T20:02:39.328Z,4.84
2023-12-21T20:05:11.572Z,4.87
2023-12-21T20:07:46.660Z,5.04
2023-12-21T20:10:17.268Z,4.80
2023-12-21T20:12:47.056Z,4.75
2023-12-21T20:15:16.805Z,4.87
2023-12-21T20:17:47.331Z,4.93
2023-12-21T20:20:17.991Z,5.01
2023-12-21T20:22:48.983Z,5.05
2023-12-21T20:25:17.807Z,5.03
2023-12-21T20:27:51.036Z,5.04
2023-12-21T20:30:20.008Z,5.02
2023-12-21T20:32:50.606Z,5.04
2023-12-21T20:35:20.058Z,5.06
2023-12-21T20:37:49.781Z,5.03
2023-12-21T20:40:18.847Z,4.97
2023-12-21T20:42:47.363Z,4.95
2023-12-21T20:45:16.462Z,5.05
2023-12-21T20:47:44.936Z,5.06
2023-12-21T20:50:18.564Z,5.17
2023-12-21T20:52:48.640Z,5.18
2023-12-21T20:55:17.602Z,5.10
2023-12-21T21:01:16.445Z,5.20
2023-12-21T21:17:47.766Z,5.29
2023-12-21T21:20:16.848Z,5.28
2023-12-21T21:26:03.773Z,5.33
2023-12-21T21:28:54.826Z,5.29
2023-12-21T21:31:34.758Z,5.10
2023-12-21T21:34:02.619Z,5.04
2023-12-21T21:36:29.991Z,5.04
2023-12-21T21:42:06.513Z,5.10
2023-12-21T21:44:34.528Z,5.13
2023-12-21T21:47:04.217Z,5.04
2023-12-21T21:49:31.875Z,5.24
2023-12-21T21:55:30.669Z,4.97
2023-12-21T22:01:30.263Z,5.01
2023-12-21T22:03:57.790Z,5.22
2023-12-21T22:06:28.585Z,5.23
2023-12-21T22:08:55.882Z,5.22
2023-12-21T22:11:26.269Z,5.21
2023-12-21T22:13:53.534Z,5.33
2023-12-21T22:19:51.587Z,5.51
2023-12-21T22:25:39.204Z,5.16
2023-12-21T22:31:37.555Z,5.24
2023-12-21T22:34:05.590Z,5.17
2023-12-21T22:40:03.484Z,5.37
2023-12-21T22:42:34.777Z,5.23
2023-12-21T22:45:02.453Z,5.28
2023-12-21T22:51:00.285Z,5.47
2023-12-21T22:56:58.419Z,5.52
2023-12-21T22:59:26.302Z,5.56
2023-12-21T23:01:54.050Z,5.45
2023-12-21T23:04:22.062Z,5.27
2023-12-21T23:06:50.093Z,5.32
2023-12-21T23:09:17.789Z,5.23
2023-12-21T23:11:45.375Z,5.05
2023-12-21T23:14:13.301Z,4.97
2023-12-21T23:16:41.239Z,4.98
2023-12-21T23:19:10.869Z,4.96
2023-12-21T23:21:40.509Z,5.03
2023-12-21T23:24:08.391Z,4.94
2023-12-21T23:26:36.037Z,4.91
2023-12-21T23:29:05.185Z,4.98
2023-12-21T23:31:34.115Z,5.03
2023-12-21T23:34:01.830Z,4.92
2023-12-21T23:36:29.835Z,4.94
2023-12-21T23:38:57.494Z,5.06
2023-12-21T23:41:25.092Z,5.02
2023-12-21T23:43:52.545Z,5.11
2023-12-21T23:46:20.248Z,5.09
2023-12-21T23:48:48.534Z,5.02
2023-12-21T23:51:16.516Z,5.05
2023-12-21T23:53:43.589Z,5.22
2023-12-21T23:56:12.174Z,5.33
2023-12-21T23:58:40.363Z,5.33
